Mega Smeralda — ICIU — position and weather

sailwx.info

Track history (hours):
 
Tides and Currents Weather Stations Pressure Air Temp Water Temp Dewpoint Dewpoint Depression Visibility Wind Speed Wind Dir Waves Ship Positions

Mega Smeralda

Last reported at 2014-Sep-02 20:33 UTC. Time now 2014-Sep-02 21:15 UTC.
Position N 42°01' E 008°07'.

Length 171 m; draft 6.3 m.

Type: Passenger vessel. MMSI: 247228600.

Date/timePositionNaut miles runAvg speedWind from/ knotsBaromVisibWave heightAir tempDewpointWater temp
2014-Sep-02 20:33N 42°01' E 008°07'1414.0
2014-Sep-02 19:34N 41°54' E 008°23'1312.8
2014-Sep-02 18:34N 41°51' E 008°39'4 1.2
2014-Sep-02 15:15N 41°49' E 008°35'1518.6
2014-Sep-02 14:26N 41°57' E 008°17'1618.5
2014-Sep-02 13:33N 42°05' E 007°58'3718.1
2014-Sep-02 11:32N 42°25' E 007°17'1917.9
2014-Sep-02 10:29N 42°35' E 006°55'1718.4
2014-Sep-02 09:33N 42°44' E 006°35'1818.2
2014-Sep-02 08:33N 42°53' E 006°14'1717.3
2014-Sep-02 07:33N 43°05' E 005°57'2 2.0
2014-Sep-02 06:33N 43°07' E 005°56'0 0.0
2014-Sep-02 05:32N 43°07' E 005°56'0 0.0
2014-Sep-02 04:32N 43°07' E 005°56'3 2.8
2014-Sep-02 03:34N 43°05' E 005°58'1515.2
2014-Sep-02 02:34N 42°54' E 006°12'1616.5
2014-Sep-02 01:34N 42°45' E 006°31'1716.7
2014-Sep-02 00:34N 42°36' E 006°51'1717.2
2014-Sep-01 23:34N 42°27' E 007°11'1716.7
2014-Sep-01 22:34N 42°18' E 007°30'1716.7
2014-Sep-01 21:33N 42°09' E 007°49'1916.7
2014-Sep-01 20:25N 41°59' E 008°11'88 4.7
2014-Sep-01 01:33N 42°46' E 006°30'1919.5
2014-Sep-01 00:33N 42°57' E 006°08'1413.6
2014-Aug-31 23:33N 43°07' E 005°56'0 0.0
2014-Aug-31 22:33N 43°07' E 005°56'2 2.4
2014-Aug-31 21:33N 43°05' E 005°58'1716.7
2014-Aug-31 20:33N 42°54' E 006°15'1918.6
2014-Aug-31 19:34N 42°52' E 006°41'1818.0
2014-Aug-31 18:33N 42°51' E 007°05'1818.3
2014-Aug-31 17:34N 42°49' E 007°30'1918.6
2014-Aug-31 16:33N 42°46' E 007°55'1919.0
2014-Aug-31 15:33N 42°44' E 008°21'1818.6
2014-Aug-31 14:33N 42°41' E 008°46'9012.9
2014-Aug-31 07:33N 42°52' E 006°44'1818.6
2014-Aug-31 06:34N 42°55' E 006°19'1817.8
2014-Aug-31 05:34N 43°04' E 005°58'3 3.4
2014-Aug-31 04:33N 43°07' E 005°56'3 3.4
2014-Aug-31 03:33N 43°04' E 005°58'1818.5
2014-Aug-31 02:33N 42°55' E 006°21'2020.3
2014-Aug-31 01:34N 42°57' E 006°48'1919.4
2014-Aug-31 00:33N 42°59' E 007°15'1919.1
2014-Aug-30 23:33N 42°60' E 007°41'1919.2
2014-Aug-30 22:34N 43°00' E 008°07'1919.1
2014-Aug-30 21:33N 43°01' E 008°33'1918.8
2014-Aug-30 20:32N 43°03' E 008°59'1819.0
2014-Aug-30 19:33N 43°03' E 009°25'22 6.8
2014-Aug-30 16:23N 42°42' E 009°28'1518.7
2014-Aug-30 15:33N 42°51' E 009°45'1919.2
2014-Aug-30 14:34N 43°06' E 010°01'2020.0
2014-Aug-30 13:34N 43°25' E 010°11'10 9.9
2014-Aug-30 12:33N 43°33' E 010°18'0 0.3
2014-Aug-30 11:33N 43°33' E 010°18'1312.8
2014-Aug-30 10:33N 43°22' E 010°10'1918.6
2014-Aug-30 09:33N 43°04' E 010°00'3310.1
2014-Aug-30 06:18N 42°42' E 009°27'1115.2
2014-Aug-30 05:33N 42°53' E 009°31'1514.9
2014-Aug-30 04:34N 43°03' E 009°17'2019.9
2014-Aug-30 03:34N 43°02' E 008°50'2019.6
2014-Aug-30 02:33N 43°01' E 008°23'2119.5
2014-Aug-30 01:27N 42°60' E 007°54'2019.1
2014-Aug-30 00:24N 42°59' E 007°26'1619.2
2014-Aug-29 23:34N 42°58' E 007°04'1919.0
2014-Aug-29 22:33N 42°57' E 006°38'1919.0
2014-Aug-29 21:33N 42°55' E 006°12'1716.3
2014-Aug-29 20:32N 43°06' E 005°55'1 0.7
2014-Aug-29 19:31N 43°07' E 005°56'2 2.3
2014-Aug-29 18:33N 43°05' E 005°58'1817.9
2014-Aug-29 17:33N 42°55' E 006°17'2019.6
2014-Aug-29 16:33N 42°52' E 006°44'1918.8
2014-Aug-29 15:33N 42°50' E 007°09'2018.8
2014-Aug-29 14:31N 42°47' E 007°36'1819.2
2014-Aug-29 13:33N 42°45' E 008°01'1919.0
2014-Aug-29 12:33N 42°43' E 008°27'1919.0
2014-Aug-29 11:33N 42°41' E 008°52'4310.4
2014-Aug-29 07:27N 43°09' E 008°08'1719.6
2014-Aug-29 06:33N 43°20' E 007°50'2019.5
2014-Aug-29 05:33N 43°33' E 007°29'1212.4
2014-Aug-29 04:33N 43°42' E 007°17'2 1.8
2014-Aug-29 03:33N 43°40' E 007°18'1616.4
2014-Aug-29 02:33N 43°25' E 007°27'1717.1
2014-Aug-29 01:33N 43°10' E 007°38'1717.1
2014-Aug-29 00:34N 42°54' E 007°48'21 9.2
2014-Aug-28 22:15N 43°06' E 008°12'5979.7
2014-Aug-28 21:31N 42°08' E 008°20'2115.9
2014-Aug-28 20:10N 41°50' E 008°35'2 0.7
2014-Aug-28 17:08N 41°50' E 008°38'5518.6
2014-Aug-28 14:10N 42°17' E 007°33'1619.5
2014-Aug-28 13:22N 42°26' E 007°16'1618.9
2014-Aug-28 12:32N 42°34' E 006°58'1919.8
2014-Aug-28 11:33N 42°44' E 006°35'1919.4
2014-Aug-28 10:33N 42°54' E 006°13'1717.2
2014-Aug-28 09:34N 43°06' E 005°55'1 1.2
2014-Aug-28 08:27N 43°07' E 005°56'0 0.0
2014-Aug-28 07:32N 43°07' E 005°56'0 0.0
2014-Aug-28 06:18N 43°07' E 005°56'0 0.0
2014-Aug-28 05:30N 43°07' E 005°56'4 4.4
2014-Aug-28 04:34N 43°04' E 005°59'1414.1
2014-Aug-28 03:34N 42°54' E 006°13'1414.4
2014-Aug-28 02:33N 42°46' E 006°29'1414.3
2014-Aug-28 01:34N 42°39' E 006°46'1514.5
2014-Aug-28 00:34N 42°31' E 007°03'1514.7
2014-Aug-27 23:34N 42°23' E 007°20'1414.4
2014-Aug-27 22:34N 42°15' E 007°36'1414.3
2014-Aug-27 21:33N 42°08' E 007°53'1614.4
2014-Aug-27 20:27N 41°59' E 008°11'1414.2
2014-Aug-27 19:26N 41°52' E 008°27'1112.6
2014-Aug-27 18:33N 41°51' E 008°42'7 1.6
2014-Aug-27 14:08N 41°50' E 008°33'1118.4
2014-Aug-27 13:33N 41°55' E 008°21'2718.5
2014-Aug-27 12:05N 42°09' E 007°49'1018.3
2014-Aug-27 11:33N 42°14' E 007°39'1918.6
2014-Aug-27 10:33N 42°25' E 007°18'1918.6
2014-Aug-27 09:33N 42°34' E 006°56'1918.9
2014-Aug-27 08:33N 42°44' E 006°34'1818.4
2014-Aug-27 07:34N 42°54' E 006°13'1717.1
2014-Aug-27 06:33N 43°05' E 005°55'2 1.7
2014-Aug-27 05:33N 43°07' E 005°56'0 0.1
2014-Aug-27 04:33N 43°07' E 005°56'0 0.0
2014-Aug-27 03:33N 43°07' E 005°56'1111.3
2014-Aug-27 02:34N 42°58' E 006°05'1818.2
2014-Aug-27 01:33N 42°49' E 006°26'1818.2
2014-Aug-27 00:34N 42°38' E 006°46'1818.2
2014-Aug-26 23:34N 42°28' E 007°07'1818.3
2014-Aug-26 22:34N 42°19' E 007°28'58 8.1
2014-Aug-26 15:25N 41°50' E 008°36'11118.9
2014-Aug-26 09:33N 42°47' E 006°28'1918.9
2014-Aug-26 08:33N 42°57' E 006°06'1212.1
2014-Aug-26 07:33N 43°07' E 005°56'2 1.7
2014-Aug-26 06:33N 43°05' E 005°56'1817.6
2014-Aug-26 05:34N 42°54' E 006°14'2020.0
2014-Aug-26 04:33N 42°43' E 006°37'1919.3
2014-Aug-26 03:33N 42°33' E 006°60'49 5.4
2014-Aug-25 18:29N 42°28' E 008°06'1819.6
2014-Aug-25 17:33N 42°45' E 007°55'1919.4
2014-Aug-25 16:33N 43°02' E 007°43'2019.2
2014-Aug-25 15:30N 43°20' E 007°31'1819.3
2014-Aug-25 14:33N 43°37' E 007°20'5 5.3
2014-Aug-25 13:33N 43°42' E 007°17'1212.4
2014-Aug-25 12:33N 43°30' E 007°23'2019.7
2014-Aug-25 11:33N 43°12' E 007°35'2019.6
2014-Aug-25 10:33N 42°55' E 007°47'4519.4
2014-Aug-25 08:15N 42°15' E 008°15'40 5.0
2014-Aug-25 00:10N 42°50' E 007°49'1119.0
2014-Aug-24 23:34N 43°01' E 007°43'1919.0
2014-Aug-24 22:33N 43°18' E 007°33'1919.3
2014-Aug-24 21:33N 43°35' E 007°21'7 6.6
2014-Aug-24 20:33N 43°42' E 007°17'1111.3
2014-Aug-24 19:33N 43°33' E 007°27'2019.7
2014-Aug-24 18:34N 43°21' E 007°48'2819.0
2014-Aug-24 17:04N 43°03' E 008°19'3118.8
2014-Aug-24 15:26N 42°44' E 008°52'6 3.3
2014-Aug-24 13:32N 42°38' E 008°56'9418.9
2014-Aug-24 08:33N 42°52' E 006°50'1918.8
2014-Aug-24 07:33N 42°54' E 006°24'1818.2
2014-Aug-24 06:33N 43°01' E 006°01'7 7.4
2014-Aug-24 05:33N 43°07' E 005°56'3 2.7
2014-Aug-24 04:33N 43°05' E 005°58'1616.3
2014-Aug-24 03:33N 42°57' E 006°17'1919.0
2014-Aug-24 02:33N 43°01' E 006°43'1919.2
2014-Aug-24 01:33N 43°08' E 007°07'4519.0
2014-Aug-23 23:13N 43°15' E 008°07'1218.2
2014-Aug-23 22:34N 43°13' E 008°23'1818.3
2014-Aug-23 21:33N 43°09' E 008°48'  
Track history (hours):
 
Tides and Currents Weather Stations Pressure Air Temp Water Temp Dewpoint Dewpoint Depression Visibility Wind Speed Wind Dir Waves Ship Positions

Mega Smeralda

Last reported at 2014-Sep-02 20:33 UTC. Time now 2014-Sep-02 21:15 UTC.
Position N 42°01' E 008°07'.

Length 171 m; draft 6.3 m.

Type: Passenger vessel. MMSI: 247228600.

Date/timePositionNaut miles runAvg speedWind from/ knotsBaromVisibWave heightAir tempDewpointWater temp
2014-Sep-02 20:33N 42°01' E 008°07'1414.0
2014-Sep-02 19:34N 41°54' E 008°23'1312.8
2014-Sep-02 18:34N 41°51' E 008°39'4 1.2
2014-Sep-02 15:15N 41°49' E 008°35'1518.6
2014-Sep-02 14:26N 41°57' E 008°17'1618.5
2014-Sep-02 13:33N 42°05' E 007°58'3718.1
2014-Sep-02 11:32N 42°25' E 007°17'1917.9
2014-Sep-02 10:29N 42°35' E 006°55'1718.4
2014-Sep-02 09:33N 42°44' E 006°35'1818.2
2014-Sep-02 08:33N 42°53' E 006°14'1717.3
2014-Sep-02 07:33N 43°05' E 005°57'2 2.0
2014-Sep-02 06:33N 43°07' E 005°56'0 0.0
2014-Sep-02 05:32N 43°07' E 005°56'0 0.0
2014-Sep-02 04:32N 43°07' E 005°56'3 2.8
2014-Sep-02 03:34N 43°05' E 005°58'1515.2
2014-Sep-02 02:34N 42°54' E 006°12'1616.5
2014-Sep-02 01:34N 42°45' E 006°31'1716.7
2014-Sep-02 00:34N 42°36' E 006°51'1717.2
2014-Sep-01 23:34N 42°27' E 007°11'1716.7
2014-Sep-01 22:34N 42°18' E 007°30'1716.7
2014-Sep-01 21:33N 42°09' E 007°49'1916.7
2014-Sep-01 20:25N 41°59' E 008°11'88 4.7
2014-Sep-01 01:33N 42°46' E 006°30'1919.5
2014-Sep-01 00:33N 42°57' E 006°08'1413.6
2014-Aug-31 23:33N 43°07' E 005°56'0 0.0
2014-Aug-31 22:33N 43°07' E 005°56'2 2.4
2014-Aug-31 21:33N 43°05' E 005°58'1716.7
2014-Aug-31 20:33N 42°54' E 006°15'1918.6
2014-Aug-31 19:34N 42°52' E 006°41'1818.0
2014-Aug-31 18:33N 42°51' E 007°05'1818.3
2014-Aug-31 17:34N 42°49' E 007°30'1918.6
2014-Aug-31 16:33N 42°46' E 007°55'1919.0
2014-Aug-31 15:33N 42°44' E 008°21'1818.6
2014-Aug-31 14:33N 42°41' E 008°46'9012.9
2014-Aug-31 07:33N 42°52' E 006°44'1818.6
2014-Aug-31 06:34N 42°55' E 006°19'1817.8
2014-Aug-31 05:34N 43°04' E 005°58'3 3.4
2014-Aug-31 04:33N 43°07' E 005°56'3 3.4
2014-Aug-31 03:33N 43°04' E 005°58'1818.5
2014-Aug-31 02:33N 42°55' E 006°21'2020.3
2014-Aug-31 01:34N 42°57' E 006°48'1919.4
2014-Aug-31 00:33N 42°59' E 007°15'1919.1
2014-Aug-30 23:33N 42°60' E 007°41'1919.2
2014-Aug-30 22:34N 43°00' E 008°07'1919.1
2014-Aug-30 21:33N 43°01' E 008°33'1918.8
2014-Aug-30 20:32N 43°03' E 008°59'1819.0
2014-Aug-30 19:33N 43°03' E 009°25'22 6.8
2014-Aug-30 16:23N 42°42' E 009°28'1518.7
2014-Aug-30 15:33N 42°51' E 009°45'1919.2
2014-Aug-30 14:34N 43°06' E 010°01'2020.0
2014-Aug-30 13:34N 43°25' E 010°11'10 9.9
2014-Aug-30 12:33N 43°33' E 010°18'0 0.3
2014-Aug-30 11:33N 43°33' E 010°18'1312.8
2014-Aug-30 10:33N 43°22' E 010°10'1918.6
2014-Aug-30 09:33N 43°04' E 010°00'3310.1
2014-Aug-30 06:18N 42°42' E 009°27'1115.2
2014-Aug-30 05:33N 42°53' E 009°31'1514.9
2014-Aug-30 04:34N 43°03' E 009°17'2019.9
2014-Aug-30 03:34N 43°02' E 008°50'2019.6
2014-Aug-30 02:33N 43°01' E 008°23'2119.5
2014-Aug-30 01:27N 42°60' E 007°54'2019.1
2014-Aug-30 00:24N 42°59' E 007°26'1619.2
2014-Aug-29 23:34N 42°58' E 007°04'1919.0
2014-Aug-29 22:33N 42°57' E 006°38'1919.0
2014-Aug-29 21:33N 42°55' E 006°12'1716.3
2014-Aug-29 20:32N 43°06' E 005°55'1 0.7
2014-Aug-29 19:31N 43°07' E 005°56'2 2.3
2014-Aug-29 18:33N 43°05' E 005°58'1817.9
2014-Aug-29 17:33N 42°55' E 006°17'2019.6
2014-Aug-29 16:33N 42°52' E 006°44'1918.8
2014-Aug-29 15:33N 42°50' E 007°09'2018.8
2014-Aug-29 14:31N 42°47' E 007°36'1819.2
2014-Aug-29 13:33N 42°45' E 008°01'1919.0
2014-Aug-29 12:33N 42°43' E 008°27'1919.0
2014-Aug-29 11:33N 42°41' E 008°52'4310.4
2014-Aug-29 07:27N 43°09' E 008°08'1719.6
2014-Aug-29 06:33N 43°20' E 007°50'2019.5
2014-Aug-29 05:33N 43°33' E 007°29'1212.4
2014-Aug-29 04:33N 43°42' E 007°17'2 1.8
2014-Aug-29 03:33N 43°40' E 007°18'1616.4
2014-Aug-29 02:33N 43°25' E 007°27'1717.1
2014-Aug-29 01:33N 43°10' E 007°38'1717.1
2014-Aug-29 00:34N 42°54' E 007°48'21 9.2
2014-Aug-28 22:15N 43°06' E 008°12'5979.7
2014-Aug-28 21:31N 42°08' E 008°20'2115.9
2014-Aug-28 20:10N 41°50' E 008°35'2 0.7
2014-Aug-28 17:08N 41°50' E 008°38'5518.6
2014-Aug-28 14:10N 42°17' E 007°33'1619.5
2014-Aug-28 13:22N 42°26' E 007°16'1618.9
2014-Aug-28 12:32N 42°34' E 006°58'1919.8
2014-Aug-28 11:33N 42°44' E 006°35'1919.4
2014-Aug-28 10:33N 42°54' E 006°13'1717.2
2014-Aug-28 09:34N 43°06' E 005°55'1 1.2
2014-Aug-28 08:27N 43°07' E 005°56'0 0.0
2014-Aug-28 07:32N 43°07' E 005°56'0 0.0
2014-Aug-28 06:18N 43°07' E 005°56'0 0.0
2014-Aug-28 05:30N 43°07' E 005°56'4 4.4
2014-Aug-28 04:34N 43°04' E 005°59'1414.1
2014-Aug-28 03:34N 42°54' E 006°13'1414.4
2014-Aug-28 02:33N 42°46' E 006°29'1414.3
2014-Aug-28 01:34N 42°39' E 006°46'1514.5
2014-Aug-28 00:34N 42°31' E 007°03'1514.7
2014-Aug-27 23:34N 42°23' E 007°20'1414.4
2014-Aug-27 22:34N 42°15' E 007°36'1414.3
2014-Aug-27 21:33N 42°08' E 007°53'1614.4
2014-Aug-27 20:27N 41°59' E 008°11'1414.2
2014-Aug-27 19:26N 41°52' E 008°27'1112.6
2014-Aug-27 18:33N 41°51' E 008°42'7 1.6
2014-Aug-27 14:08N 41°50' E 008°33'1118.4
2014-Aug-27 13:33N 41°55' E 008°21'2718.5
2014-Aug-27 12:05N 42°09' E 007°49'1018.3
2014-Aug-27 11:33N 42°14' E 007°39'1918.6
2014-Aug-27 10:33N 42°25' E 007°18'1918.6
2014-Aug-27 09:33N 42°34' E 006°56'1918.9
2014-Aug-27 08:33N 42°44' E 006°34'1818.4
2014-Aug-27 07:34N 42°54' E 006°13'1717.1
2014-Aug-27 06:33N 43°05' E 005°55'2 1.7
2014-Aug-27 05:33N 43°07' E 005°56'0 0.1
2014-Aug-27 04:33N 43°07' E 005°56'0 0.0
2014-Aug-27 03:33N 43°07' E 005°56'1111.3
2014-Aug-27 02:34N 42°58' E 006°05'1818.2
2014-Aug-27 01:33N 42°49' E 006°26'1818.2
2014-Aug-27 00:34N 42°38' E 006°46'1818.2
2014-Aug-26 23:34N 42°28' E 007°07'1818.3
2014-Aug-26 22:34N 42°19' E 007°28'58 8.1
2014-Aug-26 15:25N 41°50' E 008°36'11118.9
2014-Aug-26 09:33N 42°47' E 006°28'1918.9
2014-Aug-26 08:33N 42°57' E 006°06'1212.1
2014-Aug-26 07:33N 43°07' E 005°56'2 1.7
2014-Aug-26 06:33N 43°05' E 005°56'1817.6
2014-Aug-26 05:34N 42°54' E 006°14'2020.0
2014-Aug-26 04:33N 42°43' E 006°37'1919.3
2014-Aug-26 03:33N 42°33' E 006°60'49 5.4
2014-Aug-25 18:29N 42°28' E 008°06'1819.6
2014-Aug-25 17:33N 42°45' E 007°55'1919.4
2014-Aug-25 16:33N 43°02' E 007°43'2019.2
2014-Aug-25 15:30N 43°20' E 007°31'1819.3
2014-Aug-25 14:33N 43°37' E 007°20'5 5.3
2014-Aug-25 13:33N 43°42' E 007°17'1212.4
2014-Aug-25 12:33N 43°30' E 007°23'2019.7
2014-Aug-25 11:33N 43°12' E 007°35'2019.6
2014-Aug-25 10:33N 42°55' E 007°47'4519.4
2014-Aug-25 08:15N 42°15' E 008°15'40 5.0
2014-Aug-25 00:10N 42°50' E 007°49'1119.0
2014-Aug-24 23:34N 43°01' E 007°43'1919.0
2014-Aug-24 22:33N 43°18' E 007°33'1919.3
2014-Aug-24 21:33N 43°35' E 007°21'7 6.6
2014-Aug-24 20:33N 43°42' E 007°17'1111.3
2014-Aug-24 19:33N 43°33' E 007°27'2019.7
2014-Aug-24 18:34N 43°21' E 007°48'2819.0
2014-Aug-24 17:04N 43°03' E 008°19'3118.8
2014-Aug-24 15:26N 42°44' E 008°52'6 3.3
2014-Aug-24 13:32N 42°38' E 008°56'9418.9
2014-Aug-24 08:33N 42°52' E 006°50'1918.8
2014-Aug-24 07:33N 42°54' E 006°24'1818.2
2014-Aug-24 06:33N 43°01' E 006°01'7 7.4
2014-Aug-24 05:33N 43°07' E 005°56'3 2.7
2014-Aug-24 04:33N 43°05' E 005°58'1616.3
2014-Aug-24 03:33N 42°57' E 006°17'1919.0
2014-Aug-24 02:33N 43°01' E 006°43'1919.2
2014-Aug-24 01:33N 43°08' E 007°07'4519.0
2014-Aug-23 23:13N 43°15' E 008°07'1218.2
2014-Aug-23 22:34N 43°13' E 008°23'1818.3
2014-Aug-23 21:33N 43°09' E 008°48'  

Dump ship's entire track history